EHAM/AMS METAR and TAF weather

Enter ICAO airport designator
Station Type Date Time Source
EHAM METAR 2019/10/21 05:55 UTC NOAA

EHAM 210555Z 06015KT 020V120 7000 -RADZ FEW006 BKN008 BKN013 11/10 Q1012 TEMPO 4000


Station Type Date Time Source
EHAM Decoded METAR 2019/10/21 05:55 UTC NOAA

Amsterdam Airport Schiphol, Netherlands (EHAM) 52-18N 004-46E -2M
Oct 21, 2019 - 01:55 AM EDT / 2019.10.21 0555 UTC
Wind: from the ENE (060 degrees) at 17 MPH (15 KT) (direction variable):0
Visibility: 4 mile(s):0
Sky conditions: mostly cloudy
Weather: light rain, drizzle
Temperature: 51 F (11 C)
Dew Point: 50 F (10 C)
Relative Humidity: 93%
Pressure (altimeter): 29.88 in. Hg (1012 hPa)
ob: EHAM 210555Z 06015KT 020V120 7000 -RADZ FEW006 BKN008 BKN013 11/10 Q1012 TEMPO 4000
cycle: 6

Station Type Date Time Source
EHAM TAF 2019/10/21 06:28 UTC NOAA

TAF EHAM 210430Z 2106/2212 06008KT 5000 -DZRA BR BKN006 PROB40
TEMPO 2106/2109 2000 DZ BKN004
BECMG 2109/2112 20008KT 8000 NSW BKN018 PROB30
TEMPO 2112/2201 3500 -DZRA BKN006 PROB40
TEMPO 2201/2209 2000 BR BKN004
BECMG 2209/2212 26005KT SCT020

Example: see airport list